createdAt,value
2019-05-09T00:00:14.998Z,995.28
2019-05-09T00:01:14.942Z,995.29
2019-05-09T00:02:14.922Z,995.30
2019-05-09T00:03:14.919Z,995.24
2019-05-09T00:04:14.916Z,995.23
2019-05-09T00:05:14.882Z,995.22
2019-05-09T00:06:14.949Z,995.26
2019-05-09T00:07:14.884Z,995.20
2019-05-09T00:08:14.842Z,995.24
2019-05-09T00:09:14.839Z,995.23
2019-05-09T00:10:14.838Z,995.20
2019-05-09T00:11:14.982Z,995.15
2019-05-09T00:12:14.820Z,995.19
2019-05-09T00:13:14.783Z,995.16
2019-05-09T00:14:14.782Z,995.16
2019-05-09T00:15:14.770Z,995.10
2019-05-09T00:16:14.890Z,995.15
2019-05-09T00:17:14.735Z,995.15
2019-05-09T00:18:14.765Z,995.07
2019-05-09T00:19:14.729Z,995.08
2019-05-09T00:20:14.701Z,995.06
2019-05-09T00:21:14.709Z,995.08
2019-05-09T00:22:14.713Z,995.07
2019-05-09T00:23:14.695Z,995.05
2019-05-09T00:24:14.731Z,995.05
2019-05-09T00:25:14.660Z,995.04
2019-05-09T00:26:14.641Z,995.11
2019-05-09T00:27:14.677Z,995.01
2019-05-09T00:28:14.651Z,995.01
2019-05-09T00:29:14.627Z,995.04
2019-05-09T00:30:14.607Z,995.03
2019-05-09T00:31:14.587Z,995.04
2019-05-09T00:32:14.647Z,995.03
2019-05-09T00:33:14.570Z,994.93
2019-05-09T00:34:14.565Z,995.06
2019-05-09T00:35:14.559Z,995.04
2019-05-09T00:36:14.568Z,994.99
2019-05-09T00:37:14.555Z,995.04
2019-05-09T00:38:14.518Z,994.99
2019-05-09T00:39:14.510Z,994.98
2019-05-09T00:40:14.498Z,995.06
2019-05-09T00:41:14.484Z,995.01
2019-05-09T00:42:14.528Z,995.01
2019-05-09T00:43:14.459Z,994.99
2019-05-09T00:44:14.450Z,994.98
2019-05-09T00:45:14.437Z,995.01
2019-05-09T00:46:14.598Z,994.98
2019-05-09T00:47:14.482Z,994.95
2019-05-09T00:48:14.398Z,994.93
2019-05-09T00:49:14.392Z,994.92
2019-05-09T00:50:14.433Z,994.93
2019-05-09T00:51:14.387Z,994.86
2019-05-09T00:52:14.395Z,994.90
2019-05-09T00:53:14.359Z,994.86
2019-05-09T00:54:14.342Z,994.87
2019-05-09T00:55:14.338Z,994.85
2019-05-09T00:56:14.367Z,994.80
2019-05-09T00:57:14.337Z,994.69
2019-05-09T00:58:14.290Z,994.82
2019-05-09T00:59:14.345Z,994.73
2019-05-09T01:00:14.708Z,994.80
2019-05-09T01:01:14.252Z,994.78
2019-05-09T01:02:14.337Z,994.87
2019-05-09T01:03:14.384Z,994.77
2019-05-09T01:04:14.424Z,994.80
2019-05-09T01:05:14.212Z,994.74
2019-05-09T01:06:14.283Z,994.71
2019-05-09T01:07:14.206Z,994.72
2019-05-09T01:08:14.177Z,994.76
2019-05-09T01:09:14.226Z,994.79
2019-05-09T01:10:14.165Z,994.69
2019-05-09T01:11:15.592Z,994.67
2019-05-09T01:12:14.415Z,994.71
2019-05-09T01:13:14.332Z,994.73
2019-05-09T01:14:14.326Z,994.68
2019-05-09T01:15:14.101Z,994.73
2019-05-09T01:16:14.101Z,994.74
2019-05-09T01:17:14.121Z,994.73
2019-05-09T01:18:14.068Z,994.76
2019-05-09T01:19:14.289Z,994.66
2019-05-09T01:20:14.722Z,994.63
2019-05-09T01:21:14.045Z,994.66
2019-05-09T01:22:14.031Z,994.69
2019-05-09T01:23:14.363Z,994.64
2019-05-09T01:24:14.062Z,994.67
2019-05-09T01:25:14.011Z,994.65
2019-05-09T01:26:13.998Z,994.61
2019-05-09T01:27:14.312Z,994.64
2019-05-09T01:28:14.127Z,994.59
2019-05-09T01:29:13.997Z,994.57
2019-05-09T01:30:13.945Z,994.63
2019-05-09T01:31:13.930Z,994.61
2019-05-09T01:32:14.507Z,994.59
2019-05-09T01:33:13.927Z,994.50
2019-05-09T01:34:13.953Z,994.53
2019-05-09T01:35:13.890Z,994.63
2019-05-09T01:36:14.544Z,994.59
2019-05-09T01:37:14.218Z,994.67
2019-05-09T01:38:14.361Z,994.64
2019-05-09T01:39:13.907Z,994.59
2019-05-09T01:40:13.844Z,994.54
2019-05-09T01:41:26.704Z,994.45
2019-05-09T01:42:14.812Z,994.51
2019-05-09T01:43:14.060Z,994.50
2019-05-09T01:44:13.806Z,994.44
2019-05-09T01:45:14.193Z,994.50
2019-05-09T01:46:14.422Z,994.54
2019-05-09T01:47:14.226Z,994.51
2019-05-09T01:48:14.037Z,994.53
2019-05-09T01:49:13.989Z,994.56
2019-05-09T01:50:14.103Z,994.57
2019-05-09T01:51:14.034Z,994.53
2019-05-09T01:52:13.933Z,994.52
2019-05-09T01:53:13.741Z,994.47
2019-05-09T01:54:13.742Z,994.48
2019-05-09T01:55:14.293Z,994.55
2019-05-09T01:56:14.082Z,994.53
2019-05-09T01:57:13.830Z,994.55
2019-05-09T01:58:13.917Z,994.51
2019-05-09T01:59:13.832Z,994.45
2019-05-09T02:00:13.629Z,994.47
2019-05-09T02:01:13.659Z,994.44
2019-05-09T02:02:14.325Z,994.35
2019-05-09T02:03:14.037Z,994.43
2019-05-09T02:04:13.844Z,994.37
2019-05-09T02:05:13.608Z,994.37
2019-05-09T02:06:13.802Z,994.39
2019-05-09T02:07:13.553Z,994.36
2019-05-09T02:08:14.257Z,994.32
2019-05-09T02:09:14.166Z,994.33
2019-05-09T02:10:14.012Z,994.39
2019-05-09T02:11:13.516Z,994.39
2019-05-09T02:12:14.222Z,994.46
2019-05-09T02:13:13.712Z,994.41
2019-05-09T02:14:13.646Z,994.44
2019-05-09T02:15:13.495Z,994.55
2019-05-09T02:16:14.121Z,994.50
2019-05-09T02:17:13.967Z,994.52
2019-05-09T02:18:13.765Z,994.45
2019-05-09T02:19:13.670Z,994.45
2019-05-09T02:20:13.788Z,994.48
2019-05-09T02:21:14.579Z,994.37
2019-05-09T02:22:13.372Z,994.44
2019-05-09T02:23:13.992Z,994.44
2019-05-09T02:24:14.089Z,994.45
2019-05-09T02:25:13.793Z,994.52
2019-05-09T02:26:13.758Z,994.45
2019-05-09T02:27:13.320Z,994.46
2019-05-09T02:28:14.192Z,994.45
2019-05-09T02:29:13.977Z,994.47
2019-05-09T02:30:15.357Z,994.44
2019-05-09T02:31:16.120Z,994.50
2019-05-09T02:32:14.354Z,994.49
2019-05-09T02:33:14.575Z,994.45
2019-05-09T02:34:14.830Z,994.47
2019-05-09T02:35:13.237Z,994.46
2019-05-09T02:36:13.228Z,994.44
2019-05-09T02:37:13.230Z,994.51
2019-05-09T02:38:13.241Z,994.53
2019-05-09T02:39:13.195Z,994.46
2019-05-09T02:40:13.172Z,994.49
2019-05-09T02:41:13.182Z,994.44
2019-05-09T02:42:14.370Z,994.44
2019-05-09T02:43:13.136Z,994.48
2019-05-09T02:44:13.137Z,994.42
2019-05-09T02:45:13.139Z,994.49
2019-05-09T02:46:13.136Z,994.52
2019-05-09T02:47:13.098Z,994.52
2019-05-09T02:48:13.234Z,994.47
2019-05-09T02:49:13.077Z,994.43
2019-05-09T02:50:13.090Z,994.46
2019-05-09T02:51:13.086Z,994.42
2019-05-09T02:52:13.075Z,994.46
2019-05-09T02:53:13.029Z,994.45
2019-05-09T02:54:13.026Z,994.47
2019-05-09T02:55:13.066Z,994.44
2019-05-09T02:56:13.026Z,994.51
2019-05-09T02:57:13.012Z,994.52
2019-05-09T02:58:12.989Z,994.50
2019-05-09T02:59:12.966Z,994.43
2019-05-09T03:00:12.949Z,994.46
2019-05-09T03:01:12.973Z,994.51
2019-05-09T03:02:12.973Z,994.48
2019-05-09T03:03:12.933Z,994.46
2019-05-09T03:04:12.911Z,994.58
2019-05-09T03:05:12.899Z,994.60
2019-05-09T03:06:12.900Z,994.53
2019-05-09T03:07:12.908Z,994.58
2019-05-09T03:08:12.875Z,994.62
2019-05-09T03:09:12.872Z,994.54
2019-05-09T03:10:12.869Z,994.46
2019-05-09T03:11:12.834Z,994.56
2019-05-09T03:12:29.848Z,994.45
2019-05-09T03:13:13.808Z,994.55
2019-05-09T03:14:12.816Z,994.59
2019-05-09T03:15:12.808Z,994.59
2019-05-09T03:16:12.786Z,994.61
2019-05-09T03:17:12.787Z,994.61
2019-05-09T03:18:12.842Z,994.58
2019-05-09T03:19:12.748Z,994.58
2019-05-09T03:20:12.747Z,994.63
2019-05-09T03:21:12.726Z,994.62
2019-05-09T03:22:12.720Z,994.64
2019-05-09T03:23:12.723Z,994.66
2019-05-09T03:24:12.710Z,994.71
2019-05-09T03:25:12.713Z,994.71
2019-05-09T03:26:12.672Z,994.77
2019-05-09T03:27:12.669Z,994.77
2019-05-09T03:28:12.695Z,994.70
2019-05-09T03:29:12.671Z,994.77
2019-05-09T03:30:12.815Z,994.81
2019-05-09T03:31:12.630Z,994.79
2019-05-09T03:32:12.669Z,994.77
2019-05-09T03:33:12.611Z,994.77
2019-05-09T03:34:12.606Z,994.78
2019-05-09T03:35:12.577Z,994.77
2019-05-09T03:36:12.574Z,994.78
2019-05-09T03:37:12.552Z,994.87
2019-05-09T03:38:12.548Z,994.81
2019-05-09T03:39:12.541Z,994.88
2019-05-09T03:40:12.525Z,994.91
2019-05-09T03:41:12.509Z,994.89
2019-05-09T03:42:12.526Z,994.89
2019-05-09T03:43:12.476Z,994.86
2019-05-09T03:44:12.515Z,994.85
2019-05-09T03:45:12.458Z,994.81
2019-05-09T03:46:12.476Z,994.87
2019-05-09T03:47:12.440Z,994.96
2019-05-09T03:48:12.440Z,994.94
2019-05-09T03:49:12.532Z,994.92
2019-05-09T03:50:12.408Z,995.00
2019-05-09T03:51:12.403Z,994.95
2019-05-09T03:52:12.394Z,994.95
2019-05-09T03:53:12.374Z,994.90
2019-05-09T03:54:12.394Z,994.96
2019-05-09T03:55:12.371Z,995.06
2019-05-09T03:56:12.347Z,995.00
2019-05-09T03:57:12.330Z,994.99
2019-05-09T03:58:12.326Z,995.06
2019-05-09T03:59:12.348Z,995.09
2019-05-09T04:00:12.316Z,995.06
2019-05-09T04:01:12.346Z,995.09
2019-05-09T04:02:12.289Z,995.09
2019-05-09T04:03:12.279Z,995.07
2019-05-09T04:04:12.253Z,995.10
2019-05-09T04:05:12.273Z,995.08
2019-05-09T04:06:12.243Z,995.07
2019-05-09T04:07:12.228Z,995.06
2019-05-09T04:08:12.210Z,995.06
2019-05-09T04:09:12.249Z,995.04
2019-05-09T04:10:12.212Z,995.04
2019-05-09T04:11:12.172Z,995.03
2019-05-09T04:12:12.163Z,995.04
2019-05-09T04:13:12.181Z,995.12
2019-05-09T04:14:12.158Z,995.19
2019-05-09T04:15:12.166Z,995.07
2019-05-09T04:16:12.135Z,995.10
2019-05-09T04:17:12.104Z,995.15
2019-05-09T04:18:12.106Z,995.08
2019-05-09T04:19:12.103Z,995.20
2019-05-09T04:20:12.112Z,995.22
2019-05-09T04:21:12.075Z,995.30
2019-05-09T04:22:12.055Z,995.24
2019-05-09T04:23:12.088Z,995.18
2019-05-09T04:24:12.048Z,995.17
2019-05-09T04:25:12.023Z,995.13
2019-05-09T04:26:12.075Z,995.15
2019-05-09T04:27:11.999Z,995.18
2019-05-09T04:28:11.992Z,995.26
2019-05-09T04:29:11.987Z,995.17
2019-05-09T04:30:11.978Z,995.19
2019-05-09T04:31:11.995Z,995.17
2019-05-09T04:32:11.950Z,995.11
2019-05-09T04:33:11.958Z,995.14
2019-05-09T04:34:11.927Z,995.14
2019-05-09T04:35:11.925Z,995.17
2019-05-09T04:36:11.915Z,995.15
2019-05-09T04:37:12.378Z,995.13
2019-05-09T04:38:11.883Z,995.07
2019-05-09T04:39:18.102Z,995.10
2019-05-09T04:40:12.865Z,995.11
2019-05-09T04:41:16.400Z,995.14
2019-05-09T04:42:12.841Z,995.00
2019-05-09T04:43:16.883Z,995.04
2019-05-09T04:44:17.191Z,995.04
2019-05-09T04:45:12.810Z,995.04
2019-05-09T04:46:12.888Z,995.04
2019-05-09T04:47:12.814Z,995.05
2019-05-09T04:48:13.095Z,995.15
2019-05-09T04:49:12.765Z,995.11
2019-05-09T04:50:15.309Z,995.13
2019-05-09T04:51:12.816Z,995.11
2019-05-09T04:52:11.726Z,995.12
2019-05-09T04:53:11.711Z,995.17
2019-05-09T04:54:11.707Z,995.15
2019-05-09T04:55:11.703Z,995.25
2019-05-09T04:56:11.716Z,995.24
2019-05-09T04:57:11.697Z,995.24
2019-05-09T04:58:11.659Z,995.36
2019-05-09T04:59:11.668Z,995.32
2019-05-09T05:00:11.633Z,995.30
2019-05-09T05:01:11.658Z,995.30
2019-05-09T05:02:11.631Z,995.29
2019-05-09T05:03:11.631Z,995.30
2019-05-09T05:04:11.616Z,995.29
2019-05-09T05:05:11.586Z,995.38
2019-05-09T05:06:11.584Z,995.39
2019-05-09T05:07:11.590Z,995.43
2019-05-09T05:08:11.557Z,995.39
2019-05-09T05:09:11.538Z,995.31
2019-05-09T05:10:11.526Z,995.30
2019-05-09T05:11:11.550Z,995.34
2019-05-09T05:12:11.529Z,995.38
2019-05-09T05:13:23.244Z,995.39
2019-05-09T05:14:12.480Z,995.41
2019-05-09T05:15:11.479Z,995.40
2019-05-09T05:16:11.461Z,995.34
2019-05-09T05:17:11.716Z,995.32
2019-05-09T05:18:11.441Z,995.30
2019-05-09T05:19:11.425Z,995.31
2019-05-09T05:20:11.442Z,995.37
2019-05-09T05:21:11.411Z,995.38
2019-05-09T05:22:11.416Z,995.46
2019-05-09T05:23:11.404Z,995.43
2019-05-09T05:24:11.381Z,995.44
2019-05-09T05:25:11.367Z,995.46
2019-05-09T05:26:11.387Z,995.48
2019-05-09T05:27:11.367Z,995.48
2019-05-09T05:28:11.345Z,995.42
2019-05-09T05:29:11.353Z,995.44
2019-05-09T05:30:11.323Z,995.43
2019-05-09T05:31:11.326Z,995.48
2019-05-09T05:32:11.363Z,995.43
2019-05-09T05:33:11.277Z,995.51
2019-05-09T05:34:11.283Z,995.43
2019-05-09T05:35:11.268Z,995.50
2019-05-09T05:36:11.274Z,995.54
2019-05-09T05:37:11.266Z,995.53
2019-05-09T05:38:11.260Z,995.54
2019-05-09T05:39:11.229Z,995.48
2019-05-09T05:40:11.199Z,995.52
2019-05-09T05:41:11.219Z,995.44
2019-05-09T05:42:11.199Z,995.48
2019-05-09T05:43:11.194Z,995.60
2019-05-09T05:44:11.204Z,995.48
2019-05-09T05:45:11.233Z,995.48
2019-05-09T05:46:11.146Z,995.56
2019-05-09T05:47:11.130Z,995.55
2019-05-09T05:48:11.155Z,995.51
2019-05-09T05:49:11.114Z,995.55
2019-05-09T05:50:11.110Z,995.58
2019-05-09T05:51:11.084Z,995.56
2019-05-09T05:52:11.077Z,995.55
2019-05-09T05:53:11.087Z,995.57
2019-05-09T05:54:11.056Z,995.60
2019-05-09T05:55:11.059Z,995.54
2019-05-09T05:56:11.139Z,995.64
2019-05-09T05:57:11.032Z,995.61
2019-05-09T05:58:11.050Z,995.65
2019-05-09T05:59:11.010Z,995.58
2019-05-09T06:00:10.988Z,995.65
2019-05-09T06:01:10.983Z,995.70
2019-05-09T06:02:11.039Z,995.63
2019-05-09T06:03:10.988Z,995.70
2019-05-09T06:04:10.960Z,995.73
2019-05-09T06:05:10.986Z,995.71
2019-05-09T06:06:10.936Z,995.69
2019-05-09T06:07:10.930Z,995.70
2019-05-09T06:08:10.939Z,995.67
2019-05-09T06:09:10.927Z,995.66
2019-05-09T06:10:10.887Z,995.64
2019-05-09T06:11:12.198Z,995.66
2019-05-09T06:12:10.852Z,995.71
2019-05-09T06:13:10.894Z,995.63
2019-05-09T06:14:11.923Z,995.71
2019-05-09T06:15:10.888Z,995.72
2019-05-09T06:16:10.801Z,995.71
2019-05-09T06:17:10.811Z,995.73
2019-05-09T06:18:10.803Z,995.76
2019-05-09T06:19:10.791Z,995.70
2019-05-09T06:20:10.775Z,995.73
2019-05-09T06:21:10.760Z,995.72
2019-05-09T06:22:10.763Z,995.77
2019-05-09T06:23:10.736Z,995.79
2019-05-09T06:24:11.005Z,995.75
2019-05-09T06:25:10.715Z,995.79
2019-05-09T06:26:10.707Z,995.88
2019-05-09T06:27:10.760Z,995.84
2019-05-09T06:28:10.678Z,995.82
2019-05-09T06:29:10.688Z,995.84
2019-05-09T06:30:10.715Z,995.87
2019-05-09T06:31:10.735Z,995.92
2019-05-09T06:32:10.639Z,995.91
2019-05-09T06:33:10.627Z,995.95
2019-05-09T06:34:10.691Z,995.89
2019-05-09T06:35:10.617Z,995.91
2019-05-09T06:36:10.584Z,995.91
2019-05-09T06:37:10.602Z,995.95
2019-05-09T06:38:10.608Z,995.95
2019-05-09T06:39:10.595Z,995.88
2019-05-09T06:40:10.552Z,995.90
2019-05-09T06:41:12.221Z,995.92
2019-05-09T06:42:10.518Z,995.93
2019-05-09T06:43:10.542Z,995.94
2019-05-09T06:44:16.337Z,995.92
2019-05-09T06:45:11.487Z,995.95
2019-05-09T06:46:10.482Z,995.94
2019-05-09T06:47:10.478Z,995.92
2019-05-09T06:48:10.468Z,995.96
2019-05-09T06:49:24.278Z,995.90
2019-05-09T06:50:11.468Z,995.88
2019-05-09T06:51:10.427Z,995.96
2019-05-09T06:52:10.431Z,995.93
2019-05-09T06:53:10.411Z,995.98
2019-05-09T06:54:10.451Z,995.91
2019-05-09T06:55:10.392Z,996.02
2019-05-09T06:56:10.380Z,995.97
2019-05-09T06:57:10.364Z,995.99
2019-05-09T06:58:10.358Z,996.01
2019-05-09T06:59:10.401Z,996.02
2019-05-09T07:00:10.330Z,996.00
2019-05-09T07:01:10.316Z,996.03
2019-05-09T07:02:10.315Z,996.04
2019-05-09T07:03:10.291Z,996.09
2019-05-09T07:04:10.285Z,996.08
2019-05-09T07:05:10.932Z,996.06
2019-05-09T07:06:10.265Z,996.08
2019-05-09T07:07:10.269Z,996.08
2019-05-09T07:08:10.250Z,996.09
2019-05-09T07:09:10.289Z,996.05
2019-05-09T07:10:10.243Z,996.15
2019-05-09T07:11:10.216Z,996.12
2019-05-09T07:12:10.207Z,996.12
2019-05-09T07:13:10.186Z,996.16
2019-05-09T07:14:10.191Z,996.14
2019-05-09T07:15:10.183Z,996.19
2019-05-09T07:16:10.164Z,996.18
2019-05-09T07:17:10.135Z,996.15
2019-05-09T07:18:10.133Z,996.10
2019-05-09T07:19:10.133Z,996.15
2019-05-09T07:20:10.163Z,996.10
2019-05-09T07:21:10.177Z,996.08
2019-05-09T07:22:10.150Z,996.10
2019-05-09T07:23:10.073Z,996.09
2019-05-09T07:24:10.059Z,996.03
2019-05-09T07:25:11.113Z,996.09
2019-05-09T07:26:10.044Z,996.05
2019-05-09T07:27:10.035Z,996.06
2019-05-09T07:28:10.014Z,996.07
2019-05-09T07:29:10.005Z,996.05
2019-05-09T07:30:10.021Z,996.03
2019-05-09T07:31:11.782Z,996.02
2019-05-09T07:32:09.986Z,995.97
2019-05-09T07:33:09.965Z,996.06
2019-05-09T07:34:09.950Z,996.00
2019-05-09T07:35:09.960Z,996.07
2019-05-09T07:36:09.939Z,995.99
2019-05-09T07:37:09.920Z,996.01
2019-05-09T07:38:09.921Z,996.07
2019-05-09T07:39:09.895Z,996.03
2019-05-09T07:40:09.909Z,996.07
2019-05-09T07:41:09.877Z,996.09
2019-05-09T07:42:09.886Z,996.06
2019-05-09T07:43:09.862Z,996.01
2019-05-09T07:44:09.839Z,996.04
2019-05-09T07:45:09.847Z,996.04
2019-05-09T07:46:09.823Z,996.04
2019-05-09T07:47:09.806Z,996.09
2019-05-09T07:48:09.806Z,996.09
2019-05-09T07:49:09.815Z,996.15
2019-05-09T07:50:09.971Z,996.03
2019-05-09T07:51:09.763Z,996.05
2019-05-09T07:52:10.463Z,996.06
2019-05-09T07:53:09.739Z,996.11
2019-05-09T07:54:21.317Z,996.08
2019-05-09T07:55:10.731Z,996.06
2019-05-09T07:56:09.725Z,996.09
2019-05-09T07:57:09.723Z,996.06
2019-05-09T07:58:09.687Z,996.07
2019-05-09T07:59:09.679Z,996.06
2019-05-09T08:00:09.691Z,996.11
2019-05-09T08:01:09.655Z,996.15
2019-05-09T08:02:09.661Z,996.16
2019-05-09T08:03:13.074Z,996.14
2019-05-09T08:04:09.667Z,996.15
2019-05-09T08:05:09.612Z,996.13
2019-05-09T08:06:09.623Z,996.13
2019-05-09T08:07:09.591Z,996.14
2019-05-09T08:08:09.577Z,996.19
2019-05-09T08:09:09.585Z,996.11
2019-05-09T08:10:11.310Z,996.12
2019-05-09T08:11:09.570Z,996.17
2019-05-09T08:12:09.536Z,996.14
2019-05-09T08:13:11.957Z,996.10
2019-05-09T08:14:10.907Z,996.08
2019-05-09T08:15:16.379Z,996.10
2019-05-09T08:16:14.498Z,996.07
2019-05-09T08:17:09.527Z,996.11
2019-05-09T08:18:09.511Z,996.04
2019-05-09T08:19:09.460Z,996.01
2019-05-09T08:20:09.471Z,996.05
2019-05-09T08:21:09.467Z,996.07
2019-05-09T08:22:09.441Z,996.01
2019-05-09T08:23:09.425Z,996.06
2019-05-09T08:24:09.472Z,996.11
2019-05-09T08:25:09.415Z,996.03
2019-05-09T08:26:09.408Z,996.11
2019-05-09T08:27:09.376Z,996.12
2019-05-09T08:28:09.420Z,996.12
2019-05-09T08:29:09.660Z,996.14
2019-05-09T08:30:09.347Z,996.09
2019-05-09T08:31:09.413Z,996.15
2019-05-09T08:32:09.322Z,996.19
2019-05-09T08:33:09.331Z,996.20
2019-05-09T08:34:09.345Z,996.23
2019-05-09T08:35:09.295Z,996.18
2019-05-09T08:36:09.327Z,996.26
2019-05-09T08:37:12.524Z,996.28
2019-05-09T08:38:09.264Z,996.29
2019-05-09T08:39:09.326Z,996.28
2019-05-09T08:40:09.236Z,996.26
2019-05-09T08:41:09.596Z,996.27
2019-05-09T08:42:09.212Z,996.28
2019-05-09T08:43:09.210Z,996.25
2019-05-09T08:44:09.190Z,996.26
2019-05-09T08:45:24.167Z,996.36
2019-05-09T08:46:10.222Z,996.29
2019-05-09T08:47:09.169Z,996.31
2019-05-09T08:48:09.655Z,996.31
2019-05-09T08:49:09.158Z,996.34
2019-05-09T08:50:09.139Z,996.36
2019-05-09T08:51:09.134Z,996.40
2019-05-09T08:52:15.751Z,996.33
2019-05-09T08:53:10.100Z,996.34
2019-05-09T08:54:09.440Z,996.40
2019-05-09T08:55:09.071Z,996.33
2019-05-09T08:56:12.655Z,996.43
2019-05-09T08:57:09.106Z,996.45
2019-05-09T08:58:09.081Z,996.42
2019-05-09T08:59:09.029Z,996.44
2019-05-09T09:00:09.024Z,996.44
2019-05-09T09:01:11.028Z,996.46
2019-05-09T09:02:16.546Z,996.40
2019-05-09T09:03:09.982Z,996.42
2019-05-09T09:04:08.984Z,996.40
2019-05-09T09:05:08.962Z,996.42
2019-05-09T09:06:08.967Z,996.42
2019-05-09T09:07:09.014Z,996.47
2019-05-09T09:08:08.940Z,996.49
2019-05-09T09:09:08.915Z,996.48
2019-05-09T09:10:08.917Z,996.47
2019-05-09T09:11:08.910Z,996.48
2019-05-09T09:12:24.776Z,996.46
2019-05-09T09:13:09.874Z,996.55
2019-05-09T09:14:08.883Z,996.55
2019-05-09T09:15:08.865Z,996.55
2019-05-09T09:16:18.571Z,996.53
2019-05-09T09:17:09.821Z,996.52
2019-05-09T09:18:09.030Z,996.55
2019-05-09T09:19:09.061Z,996.51
2019-05-09T09:20:08.805Z,996.52
2019-05-09T09:21:08.804Z,996.52
2019-05-09T09:22:09.094Z,996.54
2019-05-09T09:23:09.301Z,996.46
2019-05-09T09:24:08.909Z,996.49
2019-05-09T09:25:08.798Z,996.49
2019-05-09T09:26:08.742Z,996.44
2019-05-09T09:27:08.732Z,996.52
2019-05-09T09:28:09.168Z,996.51
2019-05-09T09:29:08.712Z,996.53
2019-05-09T09:30:20.392Z,996.52
2019-05-09T09:31:09.733Z,996.49
2019-05-09T09:32:08.693Z,996.51
2019-05-09T09:33:11.548Z,996.49
2019-05-09T09:34:08.656Z,996.44
2019-05-09T09:35:08.652Z,996.56
2019-05-09T09:36:08.922Z,996.42
2019-05-09T09:37:11.550Z,996.47
2019-05-09T09:38:09.437Z,996.40
2019-05-09T09:39:08.608Z,996.40
2019-05-09T09:40:08.903Z,996.38
2019-05-09T09:41:08.574Z,996.36
2019-05-09T09:42:09.188Z,996.34
2019-05-09T09:43:09.397Z,996.36
2019-05-09T09:44:09.004Z,996.41
2019-05-09T09:45:08.526Z,996.43
2019-05-09T09:46:14.359Z,996.40
2019-05-09T09:47:09.545Z,996.39
2019-05-09T09:48:09.172Z,996.51
2019-05-09T09:49:08.515Z,996.48
2019-05-09T09:50:08.913Z,996.43
2019-05-09T09:51:08.476Z,996.48
2019-05-09T09:52:08.856Z,996.49
2019-05-09T09:53:09.122Z,996.51
2019-05-09T09:54:08.948Z,996.51
2019-05-09T09:55:09.112Z,996.57
2019-05-09T09:56:08.859Z,996.56
2019-05-09T09:57:09.611Z,996.57
2019-05-09T09:58:08.528Z,996.58
2019-05-09T09:59:08.376Z,996.61
2019-05-09T10:00:08.399Z,996.52
2019-05-09T10:01:09.154Z,996.57
2019-05-09T10:02:10.294Z,996.51
2019-05-09T10:03:08.330Z,996.49
2019-05-09T10:04:19.536Z,996.54
2019-05-09T10:05:09.312Z,996.49
2019-05-09T10:06:08.305Z,996.58
2019-05-09T10:07:09.014Z,996.53
2019-05-09T10:08:13.263Z,996.52
2019-05-09T10:09:09.504Z,996.51
2019-05-09T10:10:08.261Z,996.61
2019-05-09T10:11:08.335Z,996.55
2019-05-09T10:12:09.038Z,996.52
2019-05-09T10:13:10.760Z,996.60
2019-05-09T10:14:08.221Z,996.57
2019-05-09T10:15:08.512Z,996.56
2019-05-09T10:16:18.074Z,996.58
2019-05-09T10:17:10.317Z,996.52
2019-05-09T10:18:08.246Z,996.50
2019-05-09T10:19:08.407Z,996.60
2019-05-09T10:20:08.158Z,996.58
2019-05-09T10:21:08.148Z,996.51
2019-05-09T10:22:08.495Z,996.53
2019-05-09T10:23:17.625Z,996.58
2019-05-09T10:24:09.109Z,996.58
2019-05-09T10:25:08.099Z,996.52
2019-05-09T10:26:08.620Z,996.59
2019-05-09T10:27:09.029Z,996.59
2019-05-09T10:28:08.758Z,996.61
2019-05-09T10:29:08.096Z,996.54
2019-05-09T10:30:09.125Z,996.57
2019-05-09T10:31:08.029Z,996.52
2019-05-09T10:32:08.914Z,996.55
2019-05-09T10:33:09.177Z,996.62
2019-05-09T10:34:10.858Z,996.59
2019-05-09T10:35:08.788Z,996.57
2019-05-09T10:36:08.668Z,996.57
2019-05-09T10:37:08.000Z,996.59
2019-05-09T10:38:08.942Z,996.60
2019-05-09T10:39:08.347Z,996.58
2019-05-09T10:40:07.930Z,996.62
2019-05-09T10:41:11.145Z,996.66
2019-05-09T10:42:07.954Z,996.61
2019-05-09T10:43:08.230Z,996.67
2019-05-09T10:44:08.438Z,996.67
2019-05-09T10:45:07.925Z,996.64
2019-05-09T10:46:08.440Z,996.64
2019-05-09T10:47:08.543Z,996.62
2019-05-09T10:48:08.400Z,996.63
2019-05-09T10:49:08.458Z,996.66
2019-05-09T10:50:08.602Z,996.72
2019-05-09T10:51:10.523Z,996.67
2019-05-09T10:52:08.786Z,996.66
2019-05-09T10:53:08.207Z,996.70
2019-05-09T10:54:08.356Z,996.69
2019-05-09T10:55:09.050Z,996.67
2019-05-09T10:56:08.747Z,996.65
2019-05-09T10:57:07.774Z,996.73
2019-05-09T10:58:08.243Z,996.77
2019-05-09T10:59:08.043Z,996.67
2019-05-09T11:00:08.740Z,996.68
2019-05-09T11:01:09.063Z,996.68
2019-05-09T11:02:09.446Z,996.68
2019-05-09T11:03:08.742Z,996.72
2019-05-09T11:04:08.336Z,996.69
2019-05-09T11:05:08.426Z,996.67
2019-05-09T11:06:08.591Z,996.65
2019-05-09T11:07:08.159Z,996.69
2019-05-09T11:08:08.307Z,996.55
2019-05-09T11:09:08.626Z,996.57
2019-05-09T11:10:24.102Z,996.56
2019-05-09T11:11:09.483Z,996.53
2019-05-09T11:12:08.007Z,996.56
2019-05-09T11:13:07.712Z,996.52
2019-05-09T11:14:08.633Z,996.51
2019-05-09T11:15:09.125Z,996.53
2019-05-09T11:16:07.797Z,996.50
2019-05-09T11:17:15.935Z,996.54
2019-05-09T11:18:08.552Z,996.46
2019-05-09T11:19:08.170Z,996.55
2019-05-09T11:20:08.700Z,996.52
2019-05-09T11:21:08.388Z,996.56
2019-05-09T11:22:08.184Z,996.48
2019-05-09T11:23:08.071Z,996.52
2019-05-09T11:24:08.457Z,996.53
2019-05-09T11:25:08.740Z,996.51
2019-05-09T11:26:07.420Z,996.51
2019-05-09T11:27:08.470Z,996.47
2019-05-09T11:28:11.568Z,996.52
2019-05-09T11:29:08.420Z,996.51
2019-05-09T11:30:08.341Z,996.55
2019-05-09T11:31:08.297Z,996.60
2019-05-09T11:32:08.071Z,996.55
2019-05-09T11:33:07.944Z,996.57
2019-05-09T11:34:08.928Z,996.58
2019-05-09T11:35:08.986Z,996.55
2019-05-09T11:36:09.668Z,996.58
2019-05-09T11:37:08.516Z,996.56
2019-05-09T11:38:08.451Z,996.61
2019-05-09T11:39:10.833Z,996.64
2019-05-09T11:40:07.280Z,996.58
2019-05-09T11:41:08.328Z,996.65
2019-05-09T11:42:07.257Z,996.67
2019-05-09T11:43:07.255Z,996.70
2019-05-09T11:44:08.458Z,996.67
2019-05-09T11:45:07.803Z,996.66
2019-05-09T11:46:10.217Z,996.70
2019-05-09T11:47:25.814Z,996.69
2019-05-09T11:48:08.390Z,996.69
2019-05-09T11:49:08.348Z,996.74
2019-05-09T11:50:08.793Z,996.72
2019-05-09T11:51:09.011Z,996.73
2019-05-09T11:52:08.371Z,996.75
2019-05-09T11:53:08.806Z,996.78
2019-05-09T11:54:09.087Z,996.76
2019-05-09T11:55:07.911Z,996.84
2019-05-09T11:56:08.357Z,996.81
2019-05-09T11:57:07.644Z,996.95
2019-05-09T11:58:08.333Z,997.00
2019-05-09T11:59:07.825Z,996.89
2019-05-09T12:00:08.306Z,996.92
2019-05-09T12:01:08.262Z,997.17
2019-05-09T12:02:08.926Z,996.94
2019-05-09T12:03:09.177Z,997.13
2019-05-09T12:04:08.048Z,997.08
2019-05-09T12:05:08.834Z,997.02
2019-05-09T12:06:07.965Z,996.94
2019-05-09T12:07:07.886Z,996.89
2019-05-09T12:08:08.463Z,996.87
2019-05-09T12:09:08.608Z,996.97
2019-05-09T12:10:07.879Z,996.83
2019-05-09T12:11:08.407Z,996.83
2019-05-09T12:12:06.924Z,996.92
2019-05-09T12:13:08.689Z,996.87
2019-05-09T12:14:08.895Z,996.95
2019-05-09T12:15:08.771Z,996.95
2019-05-09T12:16:06.925Z,996.99
2019-05-09T12:17:08.371Z,997.03
2019-05-09T12:18:10.959Z,996.95
2019-05-09T12:19:06.854Z,997.05
2019-05-09T12:20:12.289Z,996.96
2019-05-09T12:21:08.524Z,996.94
2019-05-09T12:22:08.906Z,996.99
2019-05-09T12:23:07.912Z,996.89
2019-05-09T12:24:09.070Z,996.87
2019-05-09T12:25:08.605Z,996.95
2019-05-09T12:26:08.188Z,996.95
2019-05-09T12:27:08.752Z,996.90
2019-05-09T12:28:07.833Z,996.98